sensor_id;sensor_type;location;lat;lon;timestamp;temperature;humidity
63976;DHT22;50167;47.958;21.780;2023-01-08T00:01:08;10.69;59.67
63976;DHT22;50167;47.958;21.780;2023-01-08T00:03:35;9.94;57.09
63976;DHT22;50167;47.958;21.780;2023-01-08T00:06:05;8.52;57.38
63976;DHT22;50167;47.958;21.780;2023-01-08T00:08:32;7.36;59.49
63976;DHT22;50167;47.958;21.780;2023-01-08T00:10:58;6.53;61.60
63976;DHT22;50167;47.958;21.780;2023-01-08T00:13:25;6.96;67.61
63976;DHT22;50167;47.958;21.780;2023-01-08T00:15:51;8.29;67.96
63976;DHT22;50167;47.958;21.780;2023-01-08T00:18:18;9.07;65.29
63976;DHT22;50167;47.958;21.780;2023-01-08T00:20:45;9.46;63.53
63976;DHT22;50167;47.958;21.780;2023-01-08T00:23:18;9.70;61.64
63976;DHT22;50167;47.958;21.780;2023-01-08T00:25:41;9.94;61.32
63976;DHT22;50167;47.958;21.780;2023-01-08T00:28:07;10.06;60.50
63976;DHT22;50167;47.958;21.780;2023-01-08T00:30:35;10.24;59.88
63976;DHT22;50167;47.958;21.780;2023-01-08T00:33:02;9.70;57.00
63976;DHT22;50167;47.958;21.780;2023-01-08T00:35:28;8.31;57.41
63976;DHT22;50167;47.958;21.780;2023-01-08T00:37:55;7.21;59.31
63976;DHT22;50167;47.958;21.780;2023-01-08T00:40:21;6.33;61.19
63976;DHT22;50167;47.958;21.780;2023-01-08T00:42:47;6.67;67.29
63976;DHT22;50167;47.958;21.780;2023-01-08T00:45:14;8.04;68.36
63976;DHT22;50167;47.958;21.780;2023-01-08T00:47:40;8.97;65.10
63976;DHT22;50167;47.958;21.780;2023-01-08T00:50:07;9.56;62.31
63976;DHT22;50167;47.958;21.780;2023-01-08T00:52:33;10.01;60.81
63976;DHT22;50167;47.958;21.780;2023-01-08T00:54:59;10.27;59.49
63976;DHT22;50167;47.958;21.780;2023-01-08T00:57:25;9.70;56.28
63976;DHT22;50167;47.958;21.780;2023-01-08T00:59:51;8.41;57.41
63976;DHT22;50167;47.958;21.780;2023-01-08T01:02:17;7.36;58.96
63976;DHT22;50167;47.958;21.780;2023-01-08T01:04:43;6.53;60.71
63976;DHT22;50167;47.958;21.780;2023-01-08T01:07:10;6.80;65.88
63976;DHT22;50167;47.958;21.780;2023-01-08T01:09:36;8.03;67.06
63976;DHT22;50167;47.958;21.780;2023-01-08T01:12:03;8.90;64.10
63976;DHT22;50167;47.958;21.780;2023-01-08T01:14:29;9.41;62.38
63976;DHT22;50167;47.958;21.780;2023-01-08T01:16:56;9.58;61.09
63976;DHT22;50167;47.958;21.780;2023-01-08T01:19:22;9.89;59.65
63976;DHT22;50167;47.958;21.780;2023-01-08T01:21:48;9.55;56.76
63976;DHT22;50167;47.958;21.780;2023-01-08T01:24:15;8.20;56.77
63976;DHT22;50167;47.958;21.780;2023-01-08T01:26:41;7.19;60.23
63976;DHT22;50167;47.958;21.780;2023-01-08T01:29:07;6.40;61.44
63976;DHT22;50167;47.958;21.780;2023-01-08T01:31:34;6.70;65.99
63976;DHT22;50167;47.958;21.780;2023-01-08T01:34:01;8.11;67.12
63976;DHT22;50167;47.958;21.780;2023-01-08T01:36:43;9.11;63.80
63976;DHT22;50167;47.958;21.780;2023-01-08T01:39:09;9.74;61.57
63976;DHT22;50167;47.958;21.780;2023-01-08T01:41:39;10.08;59.85
63976;DHT22;50167;47.958;21.780;2023-01-08T01:44:42;9.48;56.68
63976;DHT22;50167;47.958;21.780;2023-01-08T01:54:00;5.56;61.27
63976;DHT22;50167;47.958;21.780;2023-01-08T01:56:28;6.10;69.07
63976;DHT22;50167;47.958;21.780;2023-01-08T01:58:55;7.55;68.11
63976;DHT22;50167;47.958;21.780;2023-01-08T02:01:22;8.28;65.34
63976;DHT22;50167;47.958;21.780;2023-01-08T02:03:49;8.66;63.37
63976;DHT22;50167;47.958;21.780;2023-01-08T02:06:30;9.00;61.70
63976;DHT22;50167;47.958;21.780;2023-01-08T02:12:13;9.46;59.62
63976;DHT22;50167;47.958;21.780;2023-01-08T02:26:30;6.17;69.36
63976;DHT22;50167;47.958;21.780;2023-01-08T02:31:41;8.11;64.51
63976;DHT22;50167;47.958;21.780;2023-01-08T02:34:05;8.60;62.54
63976;DHT22;50167;47.958;21.780;2023-01-08T02:36:43;8.97;60.82
63976;DHT22;50167;47.958;21.780;2023-01-08T02:39:44;9.22;59.66
63976;DHT22;50167;47.958;21.780;2023-01-08T02:51:07;5.24;62.06
63976;DHT22;50167;47.958;21.780;2023-01-08T02:53:41;5.98;70.20
63976;DHT22;50167;47.958;21.780;2023-01-08T02:56:15;7.59;67.30
63976;DHT22;50167;47.958;21.780;2023-01-08T02:58:42;8.48;63.99
63976;DHT22;50167;47.958;21.780;2023-01-08T03:01:11;9.04;61.97
63976;DHT22;50167;47.958;21.780;2023-01-08T03:03:40;9.42;60.07
63976;DHT22;50167;47.958;21.780;2023-01-08T03:06:11;9.65;59.07
63976;DHT22;50167;47.958;21.780;2023-01-08T03:08:41;9.01;55.58
63976;DHT22;50167;47.958;21.780;2023-01-08T03:11:10;7.66;56.96
63976;DHT22;50167;47.958;21.780;2023-01-08T03:13:58;6.61;58.75
63976;DHT22;50167;47.958;21.780;2023-01-08T03:16:29;5.77;60.96
63976;DHT22;50167;47.958;21.780;2023-01-08T03:19:12;5.19;62.35
63976;DHT22;50167;47.958;21.780;2023-01-08T03:21:40;6.28;70.54
63976;DHT22;50167;47.958;21.780;2023-01-08T03:24:07;7.65;66.63
63976;DHT22;50167;47.958;21.780;2023-01-08T03:26:37;8.41;63.09
63976;DHT22;50167;47.958;21.780;2023-01-08T03:29:04;8.94;61.13
63976;DHT22;50167;47.958;21.780;2023-01-08T03:31:32;9.27;59.34
63976;DHT22;50167;47.958;21.780;2023-01-08T03:34:01;8.83;56.43
63976;DHT22;50167;47.958;21.780;2023-01-08T03:36:29;7.62;57.11
63976;DHT22;50167;47.958;21.780;2023-01-08T03:43:37;5.45;61.67
63976;DHT22;50167;47.958;21.780;2023-01-08T03:46:10;6.55;69.77
63976;DHT22;50167;47.958;21.780;2023-01-08T03:48:37;7.83;65.94
63976;DHT22;50167;47.958;21.780;2023-01-08T03:51:09;8.52;63.01
63976;DHT22;50167;47.958;21.780;2023-01-08T03:53:35;9.01;59.27
63976;DHT22;50167;47.958;21.780;2023-01-08T03:56:02;8.51;56.59
63976;DHT22;50167;47.958;21.780;2023-01-08T03:58:28;7.28;57.62
63976;DHT22;50167;47.958;21.780;2023-01-08T04:00:54;6.32;59.69
63976;DHT22;50167;47.958;21.780;2023-01-08T04:03:21;5.56;61.66
63976;DHT22;50167;47.958;21.780;2023-01-08T04:05:49;6.00;68.34
63976;DHT22;50167;47.958;21.780;2023-01-08T04:08:15;7.43;66.96
63976;DHT22;50167;47.958;21.780;2023-01-08T04:10:41;8.22;63.01
63976;DHT22;50167;47.958;21.780;2023-01-08T04:13:07;8.72;60.74
63976;DHT22;50167;47.958;21.780;2023-01-08T04:15:33;9.08;59.13
63976;DHT22;50167;47.958;21.780;2023-01-08T04:17:59;8.57;56.14
63976;DHT22;50167;47.958;21.780;2023-01-08T04:20:26;7.39;57.02
63976;DHT22;50167;47.958;21.780;2023-01-08T04:22:52;6.40;58.47
63976;DHT22;50167;47.958;21.780;2023-01-08T04:25:18;5.63;60.67
63976;DHT22;50167;47.958;21.780;2023-01-08T04:27:44;5.15;63.08
63976;DHT22;50167;47.958;21.780;2023-01-08T04:30:12;6.39;69.44
63976;DHT22;50167;47.958;21.780;2023-01-08T04:32:39;7.79;65.59
63976;DHT22;50167;47.958;21.780;2023-01-08T04:35:05;8.59;62.03
63976;DHT22;50167;47.958;21.780;2023-01-08T04:37:31;9.07;59.65
63976;DHT22;50167;47.958;21.780;2023-01-08T04:39:58;8.69;56.30
63976;DHT22;50167;47.958;21.780;2023-01-08T04:42:24;7.46;57.15
63976;DHT22;50167;47.958;21.780;2023-01-08T04:44:52;6.53;58.84
63976;DHT22;50167;47.958;21.780;2023-01-08T04:47:18;5.77;60.36
63976;DHT22;50167;47.958;21.780;2023-01-08T04:49:44;5.21;62.43
63976;DHT22;50167;47.958;21.780;2023-01-08T04:52:11;6.04;69.69
63976;DHT22;50167;47.958;21.780;2023-01-08T04:54:37;7.63;67.23
63976;DHT22;50167;47.958;21.780;2023-01-08T04:57:03;8.56;62.84
63976;DHT22;50167;47.958;21.780;2023-01-08T04:59:30;9.10;60.18
63976;DHT22;50167;47.958;21.780;2023-01-08T05:01:56;9.45;58.67
63976;DHT22;50167;47.958;21.780;2023-01-08T05:04:22;8.93;55.13
63976;DHT22;50167;47.958;21.780;2023-01-08T05:06:49;7.76;56.77
63976;DHT22;50167;47.958;21.780;2023-01-08T05:09:15;6.83;58.43
63976;DHT22;50167;47.958;21.780;2023-01-08T05:11:41;6.12;60.36
63976;DHT22;50167;47.958;21.780;2023-01-08T05:14:08;5.56;61.48
63976;DHT22;50167;47.958;21.780;2023-01-08T05:16:35;6.14;68.40
63976;DHT22;50167;47.958;21.780;2023-01-08T05:19:02;7.66;66.82
63976;DHT22;50167;47.958;21.780;2023-01-08T05:21:28;8.60;62.64
63976;DHT22;50167;47.958;21.780;2023-01-08T05:23:54;9.08;60.04
63976;DHT22;50167;47.958;21.780;2023-01-08T05:26:20;9.49;58.59
63976;DHT22;50167;47.958;21.780;2023-01-08T05:28:47;8.97;55.11
63976;DHT22;50167;47.958;21.780;2023-01-08T05:31:14;7.76;56.21
63976;DHT22;50167;47.958;21.780;2023-01-08T05:33:40;6.84;58.16
63976;DHT22;50167;47.958;21.780;2023-01-08T05:36:09;6.10;59.89
63976;DHT22;50167;47.958;21.780;2023-01-08T05:38:36;5.53;61.51
63976;DHT22;50167;47.958;21.780;2023-01-08T05:41:04;6.07;67.94
63976;DHT22;50167;47.958;21.780;2023-01-08T05:43:31;7.62;68.16
63976;DHT22;50167;47.958;21.780;2023-01-08T05:46:01;8.55;64.53
63976;DHT22;50167;47.958;21.780;2023-01-08T05:48:29;9.06;62.85
63976;DHT22;50167;47.958;21.780;2023-01-08T05:50:56;9.31;60.34
63976;DHT22;50167;47.958;21.780;2023-01-08T05:53:22;9.60;59.20
63976;DHT22;50167;47.958;21.780;2023-01-08T05:55:49;9.04;56.75
63976;DHT22;50167;47.958;21.780;2023-01-08T05:58:15;7.83;59.33
63976;DHT22;50167;47.958;21.780;2023-01-08T06:00:43;6.76;60.20
63976;DHT22;50167;47.958;21.780;2023-01-08T06:03:09;5.90;64.01
63976;DHT22;50167;47.958;21.780;2023-01-08T06:05:36;6.49;69.02
63976;DHT22;50167;47.958;21.780;2023-01-08T06:08:02;7.83;67.55
63976;DHT22;50167;47.958;21.780;2023-01-08T06:10:28;8.60;64.82
63976;DHT22;50167;47.958;21.780;2023-01-08T06:12:55;9.12;63.35
63976;DHT22;50167;47.958;21.780;2023-01-08T06:15:23;9.53;61.83
63976;DHT22;50167;47.958;21.780;2023-01-08T06:17:49;9.92;60.28
63976;DHT22;50167;47.958;21.780;2023-01-08T06:20:15;10.23;58.90
63976;DHT22;50167;47.958;21.780;2023-01-08T06:22:41;9.46;57.51
63976;DHT22;50167;47.958;21.780;2023-01-08T06:25:08;8.31;59.41
63976;DHT22;50167;47.958;21.780;2023-01-08T06:27:34;7.36;61.40
63976;DHT22;50167;47.958;21.780;2023-01-08T06:30:00;7.73;68.62
63976;DHT22;50167;47.958;21.780;2023-01-08T06:32:26;9.17;66.36
63976;DHT22;50167;47.958;21.780;2023-01-08T06:34:52;9.89;63.16
63976;DHT22;50167;47.958;21.780;2023-01-08T06:37:18;10.31;61.78
63976;DHT22;50167;47.958;21.780;2023-01-08T06:39:44;10.71;60.66
63976;DHT22;50167;47.958;21.780;2023-01-08T06:42:11;11.13;58.10
63976;DHT22;50167;47.958;21.780;2023-01-08T06:44:37;10.27;56.29
63976;DHT22;50167;47.958;21.780;2023-01-08T06:47:03;8.99;59.76
63976;DHT22;50167;47.958;21.780;2023-01-08T06:49:29;7.76;62.64
63976;DHT22;50167;47.958;21.780;2023-01-08T06:51:55;7.92;68.16
63976;DHT22;50167;47.958;21.780;2023-01-08T06:54:22;9.29;65.48
63976;DHT22;50167;47.958;21.780;2023-01-08T06:56:48;10.07;62.48
63976;DHT22;50167;47.958;21.780;2023-01-08T06:59:14;10.49;61.23
63976;DHT22;50167;47.958;21.780;2023-01-08T07:01:42;10.73;58.08
63976;DHT22;50167;47.958;21.780;2023-01-08T07:04:08;9.39;58.30
63976;DHT22;50167;47.958;21.780;2023-01-08T07:06:34;8.05;60.58
63976;DHT22;50167;47.958;21.780;2023-01-08T07:09:01;7.36;66.05
63976;DHT22;50167;47.958;21.780;2023-01-08T07:11:27;8.46;68.97
63976;DHT22;50167;47.958;21.780;2023-01-08T07:13:54;9.65;65.16
63976;DHT22;50167;47.958;21.780;2023-01-08T07:16:21;10.28;62.69
63976;DHT22;50167;47.958;21.780;2023-01-08T07:18:47;10.63;60.97
63976;DHT22;50167;47.958;21.780;2023-01-08T07:21:13;10.93;59.23
63976;DHT22;50167;47.958;21.780;2023-01-08T07:23:39;10.41;57.14
63976;DHT22;50167;47.958;21.780;2023-01-08T07:26:06;9.07;60.01
63976;DHT22;50167;47.958;21.780;2023-01-08T07:28:33;7.93;62.61
63976;DHT22;50167;47.958;21.780;2023-01-08T07:31:05;8.31;68.34
63976;DHT22;50167;47.958;21.780;2023-01-08T07:33:31;9.70;65.55
63976;DHT22;50167;47.958;21.780;2023-01-08T07:35:58;10.36;62.53
63976;DHT22;50167;47.958;21.780;2023-01-08T07:38:24;10.76;60.18
63976;DHT22;50167;47.958;21.780;2023-01-08T07:40:50;10.99;59.04
63976;DHT22;50167;47.958;21.780;2023-01-08T07:43:19;10.34;57.36
63976;DHT22;50167;47.958;21.780;2023-01-08T07:45:45;9.00;59.80
63976;DHT22;50167;47.958;21.780;2023-01-08T07:48:11;8.04;61.56
63976;DHT22;50167;47.958;21.780;2023-01-08T07:50:43;8.46;67.88
63976;DHT22;50167;47.958;21.780;2023-01-08T07:53:11;9.89;66.26
63976;DHT22;50167;47.958;21.780;2023-01-08T07:55:38;10.76;63.23
63976;DHT22;50167;47.958;21.780;2023-01-08T07:58:11;11.27;60.65
63976;DHT22;50167;47.958;21.780;2023-01-08T08:00:38;11.64;58.71
63976;DHT22;50167;47.958;21.780;2023-01-08T08:03:07;11.13;56.17
63976;DHT22;50167;47.958;21.780;2023-01-08T08:05:34;9.89;57.72
63976;DHT22;50167;47.958;21.780;2023-01-08T08:08:00;8.91;61.74
63976;DHT22;50167;47.958;21.780;2023-01-08T08:10:27;8.72;65.52
63976;DHT22;50167;47.958;21.780;2023-01-08T08:12:53;9.93;63.95
63976;DHT22;50167;47.958;21.780;2023-01-08T08:15:19;10.56;62.43
63976;DHT22;50167;47.958;21.780;2023-01-08T08:17:48;11.02;60.78
63976;DHT22;50167;47.958;21.780;2023-01-08T08:20:14;11.31;59.08
63976;DHT22;50167;47.958;21.780;2023-01-08T08:22:41;10.69;56.68
63976;DHT22;50167;47.958;21.780;2023-01-08T08:25:08;9.43;59.44
63976;DHT22;50167;47.958;21.780;2023-01-08T08:27:34;8.28;61.19
63976;DHT22;50167;47.958;21.780;2023-01-08T08:30:00;8.32;66.56
63976;DHT22;50167;47.958;21.780;2023-01-08T08:32:27;9.53;66.59
63976;DHT22;50167;47.958;21.780;2023-01-08T08:34:53;10.34;63.91
63976;DHT22;50167;47.958;21.780;2023-01-08T08:37:19;10.80;61.35
63976;DHT22;50167;47.958;21.780;2023-01-08T08:39:45;11.15;59.31
63976;DHT22;50167;47.958;21.780;2023-01-08T08:42:11;10.58;57.35
63976;DHT22;50167;47.958;21.780;2023-01-08T08:44:38;9.42;58.94
63976;DHT22;50167;47.958;21.780;2023-01-08T08:51:04;9.59;67.60
63976;DHT22;50167;47.958;21.780;2023-01-08T08:53:30;10.71;63.86
63976;DHT22;50167;47.958;21.780;2023-01-08T08:55:58;11.34;60.64
63976;DHT22;50167;47.958;21.780;2023-01-08T08:58:24;11.70;58.91
63976;DHT22;50167;47.958;21.780;2023-01-08T09:00:50;11.22;56.36
63976;DHT22;50167;47.958;21.780;2023-01-08T09:03:17;10.06;57.42
63976;DHT22;50167;47.958;21.780;2023-01-08T09:05:43;9.06;59.74
63976;DHT22;50167;47.958;21.780;2023-01-08T09:08:11;8.31;61.56
63976;DHT22;50167;47.958;21.780;2023-01-08T09:10:39;8.69;66.71
63976;DHT22;50167;47.958;21.780;2023-01-08T09:13:07;10.17;65.94
63976;DHT22;50167;47.958;21.780;2023-01-08T09:15:35;11.11;62.85
63976;DHT22;50167;47.958;21.780;2023-01-08T09:18:01;11.68;60.87
63976;DHT22;50167;47.958;21.780;2023-01-08T09:20:29;12.01;57.98
63976;DHT22;50167;47.958;21.780;2023-01-08T09:22:59;11.00;56.52
63976;DHT22;50167;47.958;21.780;2023-01-08T09:25:26;9.82;58.18
63976;DHT22;50167;47.958;21.780;2023-01-08T09:28:03;8.91;61.70
63976;DHT22;50167;47.958;21.780;2023-01-08T09:30:30;9.15;66.50
63976;DHT22;50167;47.958;21.780;2023-01-08T09:32:59;10.35;64.73
63976;DHT22;50167;47.958;21.780;2023-01-08T09:35:26;11.11;62.63
63976;DHT22;50167;47.958;21.780;2023-01-08T09:37:54;11.62;60.53
63976;DHT22;50167;47.958;21.780;2023-01-08T09:40:38;11.65;57.32
63976;DHT22;50167;47.958;21.780;2023-01-08T09:43:03;10.36;59.09
63976;DHT22;50167;47.958;21.780;2023-01-08T09:45:35;9.22;62.35
63976;DHT22;50167;47.958;21.780;2023-01-08T09:48:06;9.41;66.00
63976;DHT22;50167;47.958;21.780;2023-01-08T09:50:34;10.58;63.02
63976;DHT22;50167;47.958;21.780;2023-01-08T09:53:00;11.02;62.15
63976;DHT22;50167;47.958;21.780;2023-01-08T09:55:30;11.40;61.40
63976;DHT22;50167;47.958;21.780;2023-01-08T09:57:58;11.80;58.86
63976;DHT22;50167;47.958;21.780;2023-01-08T10:00:28;11.14;57.49
63976;DHT22;50167;47.958;21.780;2023-01-08T10:02:55;9.86;59.00
63976;DHT22;50167;47.958;21.780;2023-01-08T10:05:24;8.89;61.32
63976;DHT22;50167;47.958;21.780;2023-01-08T10:07:51;9.15;67.30
63976;DHT22;50167;47.958;21.780;2023-01-08T10:10:26;10.45;65.88
63976;DHT22;50167;47.958;21.780;2023-01-08T10:12:53;11.25;61.86
63976;DHT22;50167;47.958;21.780;2023-01-08T10:15:21;11.52;61.16
63976;DHT22;50167;47.958;21.780;2023-01-08T10:18:08;11.83;60.06
63976;DHT22;50167;47.958;21.780;2023-01-08T10:20:34;12.21;59.06
63976;DHT22;50167;47.958;21.780;2023-01-08T10:23:16;11.78;56.66
63976;DHT22;50167;47.958;21.780;2023-01-08T10:25:58;10.53;57.98
63976;DHT22;50167;47.958;21.780;2023-01-08T10:28:31;9.58;61.84
63976;DHT22;50167;47.958;21.780;2023-01-08T10:31:14;9.77;65.92
63976;DHT22;50167;47.958;21.780;2023-01-08T10:33:44;10.87;63.64
63976;DHT22;50167;47.958;21.780;2023-01-08T10:36:14;11.68;61.67
63976;DHT22;50167;47.958;21.780;2023-01-08T10:38:55;12.27;60.62
63976;DHT22;50167;47.958;21.780;2023-01-08T10:41:22;12.72;58.72
63976;DHT22;50167;47.958;21.780;2023-01-08T10:44:03;12.19;55.96
63976;DHT22;50167;47.958;21.780;2023-01-08T10:46:45;10.84;57.47
63976;DHT22;50167;47.958;21.780;2023-01-08T10:49:17;9.79;59.89
63976;DHT22;50167;47.958;21.780;2023-01-08T10:51:51;9.06;56.33
63976;DHT22;50167;47.958;21.780;2023-01-08T10:54:34;8.46;62.50
63976;DHT22;50167;47.958;21.780;2023-01-08T10:57:02;9.32;69.53
63976;DHT22;50167;47.958;21.780;2023-01-08T10:59:28;10.72;66.64
63976;DHT22;50167;47.958;21.780;2023-01-08T11:01:56;11.73;63.92
63976;DHT22;50167;47.958;21.780;2023-01-08T11:04:32;12.45;61.13
63976;DHT22;50167;47.958;21.780;2023-01-08T11:07:01;12.93;59.07
63976;DHT22;50167;47.958;21.780;2023-01-08T11:09:34;12.43;56.61
63976;DHT22;50167;47.958;21.780;2023-01-08T11:12:02;11.21;57.72
63976;DHT22;50167;47.958;21.780;2023-01-08T11:14:33;10.25;60.05
63976;DHT22;50167;47.958;21.780;2023-01-08T11:17:09;9.56;61.68
63976;DHT22;50167;47.958;21.780;2023-01-08T11:19:31;9.89;66.07
63976;DHT22;50167;47.958;21.780;2023-01-08T11:22:05;11.06;65.66
63976;DHT22;50167;47.958;21.780;2023-01-08T11:24:36;11.86;62.81
63976;DHT22;50167;47.958;21.780;2023-01-08T11:27:29;12.40;60.50
63976;DHT22;50167;47.958;21.780;2023-01-08T11:30:20;12.96;58.50
63976;DHT22;50167;47.958;21.780;2023-01-08T11:33:02;12.27;56.18
63976;DHT22;50167;47.958;21.780;2023-01-08T11:35:47;11.07;57.87
63976;DHT22;50167;47.958;21.780;2023-01-08T11:38:12;10.13;61.07
63976;DHT22;50167;47.958;21.780;2023-01-08T11:44:10;10.28;67.75
63976;DHT22;50167;47.958;21.780;2023-01-08T11:46:47;11.78;64.71
63976;DHT22;50167;47.958;21.780;2023-01-08T11:49:25;12.47;61.80
63976;DHT22;50167;47.958;21.780;2023-01-08T12:06:39;10.39;67.45
63976;DHT22;50167;47.958;21.780;2023-01-08T12:09:45;12.01;65.39
63976;DHT22;50167;47.958;21.780;2023-01-08T12:21:27;11.35;57.31
63976;DHT22;50167;47.958;21.780;2023-01-08T12:24:13;10.41;59.45
63976;DHT22;50167;47.958;21.780;2023-01-08T12:30:14;10.49;66.68
63976;DHT22;50167;47.958;21.780;2023-01-08T12:32:45;12.01;63.64
63976;DHT22;50167;47.958;21.780;2023-01-08T12:35:35;12.79;61.30
63976;DHT22;50167;47.958;21.780;2023-01-08T12:38:12;13.34;59.20
63976;DHT22;50167;47.958;21.780;2023-01-08T12:40:51;12.85;55.99
63976;DHT22;50167;47.958;21.780;2023-01-08T12:43:23;11.64;58.83
63976;DHT22;50167;47.958;21.780;2023-01-08T12:45:54;10.75;60.22
63976;DHT22;50167;47.958;21.780;2023-01-08T12:48:27;10.10;61.41
63976;DHT22;50167;47.958;21.780;2023-01-08T12:51:27;10.51;65.58
63976;DHT22;50167;47.958;21.780;2023-01-08T12:57:04;12.93;60.80
63976;DHT22;50167;47.958;21.780;2023-01-08T13:02:51;12.82;55.92
63976;DHT22;50167;47.958;21.780;2023-01-08T13:08:00;10.72;59.81
63976;DHT22;50167;47.958;21.780;2023-01-08T13:10:52;10.11;61.43
63976;DHT22;50167;47.958;21.780;2023-01-08T13:13:40;10.92;66.97
63976;DHT22;50167;47.958;21.780;2023-01-08T13:16:19;12.43;64.28
63976;DHT22;50167;47.958;21.780;2023-01-08T13:19:00;13.29;60.01
63976;DHT22;50167;47.958;21.780;2023-01-08T13:21:42;13.84;57.88
63976;DHT22;50167;47.958;21.780;2023-01-08T13:24:33;12.98;55.63
63976;DHT22;50167;47.958;21.780;2023-01-08T13:29:48;10.92;59.67
63976;DHT22;50167;47.958;21.780;2023-01-08T13:37:50;10.84;68.31
63976;DHT22;50167;47.958;21.780;2023-01-08T13:43:37;13.03;62.00
63976;DHT22;50167;47.958;21.780;2023-01-08T13:46:15;13.55;59.73
63976;DHT22;50167;47.958;21.780;2023-01-08T13:49:04;13.22;56.53
63976;DHT22;50167;47.958;21.780;2023-01-08T13:51:41;11.96;57.71
63976;DHT22;50167;47.958;21.780;2023-01-08T13:56:51;10.45;61.31
63976;DHT22;50167;47.958;21.780;2023-01-08T14:04:57;12.16;65.03
63976;DHT22;50167;47.958;21.780;2023-01-08T14:07:25;12.99;61.94
63976;DHT22;50167;47.958;21.780;2023-01-08T14:09:52;13.64;59.48
63976;DHT22;50167;47.958;21.780;2023-01-08T14:12:22;13.41;56.44
63976;DHT22;50167;47.958;21.780;2023-01-08T14:14:52;12.33;57.36
63976;DHT22;50167;47.958;21.780;2023-01-08T14:17:22;11.42;58.50
63976;DHT22;50167;47.958;21.780;2023-01-08T14:19:49;10.72;60.42
63976;DHT22;50167;47.958;21.780;2023-01-08T14:22:22;10.14;62.32
63976;DHT22;50167;47.958;21.780;2023-01-08T14:25:00;10.78;67.39
63976;DHT22;50167;47.958;21.780;2023-01-08T14:27:30;12.16;65.55
63976;DHT22;50167;47.958;21.780;2023-01-08T14:29:57;12.98;62.34
63976;DHT22;50167;47.958;21.780;2023-01-08T14:32:27;13.48;60.37
63976;DHT22;50167;47.958;21.780;2023-01-08T14:34:58;13.88;58.76
63976;DHT22;50167;47.958;21.780;2023-01-08T14:37:25;13.43;55.93
63976;DHT22;50167;47.958;21.780;2023-01-08T14:39:52;12.33;57.14
63976;DHT22;50167;47.958;21.780;2023-01-08T14:42:32;11.40;59.50
63976;DHT22;50167;47.958;21.780;2023-01-08T14:47:52;10.10;62.73
63976;DHT22;50167;47.958;21.780;2023-01-08T14:50:29;10.73;68.31
63976;DHT22;50167;47.958;21.780;2023-01-08T14:53:31;12.12;65.99
63976;DHT22;50167;47.958;21.780;2023-01-08T14:55:58;13.06;62.18
63976;DHT22;50167;47.958;21.780;2023-01-08T14:58:28;13.55;59.71
63976;DHT22;50167;47.958;21.780;2023-01-08T15:01:00;13.23;56.92
63976;DHT22;50167;47.958;21.780;2023-01-08T15:03:39;12.07;57.95
63976;DHT22;50167;47.958;21.780;2023-01-08T15:06:11;11.11;60.07
63976;DHT22;50167;47.958;21.780;2023-01-08T15:08:41;10.44;61.74
63976;DHT22;50167;47.958;21.780;2023-01-08T15:11:21;10.84;66.48
63976;DHT22;50167;47.958;21.780;2023-01-08T15:13:49;12.09;65.19
63976;DHT22;50167;47.958;21.780;2023-01-08T15:16:38;12.95;62.59
63976;DHT22;50167;47.958;21.780;2023-01-08T15:19:17;13.37;60.50
63976;DHT22;50167;47.958;21.780;2023-01-08T15:21:49;13.74;59.41
63976;DHT22;50167;47.958;21.780;2023-01-08T15:24:33;13.29;56.67
63976;DHT22;50167;47.958;21.780;2023-01-08T15:27:01;11.97;57.61
63976;DHT22;50167;47.958;21.780;2023-01-08T15:29:47;11.02;60.04
63976;DHT22;50167;47.958;21.780;2023-01-08T15:32:19;10.34;62.47
63976;DHT22;50167;47.958;21.780;2023-01-08T15:34:46;10.94;67.27
63976;DHT22;50167;47.958;21.780;2023-01-08T15:37:13;12.28;65.16
63976;DHT22;50167;47.958;21.780;2023-01-08T15:39:41;13.06;61.92
63976;DHT22;50167;47.958;21.780;2023-01-08T15:42:23;13.45;59.92
63976;DHT22;50167;47.958;21.780;2023-01-08T15:45:16;13.92;58.44
63976;DHT22;50167;47.958;21.780;2023-01-08T15:47:43;13.38;55.85
63976;DHT22;50167;47.958;21.780;2023-01-08T15:50:10;12.33;57.43
63976;DHT22;50167;47.958;21.780;2023-01-08T15:52:38;11.47;59.67
63976;DHT22;50167;47.958;21.780;2023-01-08T15:55:14;10.87;61.45
63976;DHT22;50167;47.958;21.780;2023-01-08T15:57:37;10.36;62.49
63976;DHT22;50167;47.958;21.780;2023-01-08T16:00:07;10.92;67.31
63976;DHT22;50167;47.958;21.780;2023-01-08T16:02:43;12.24;65.65
63976;DHT22;50167;47.958;21.780;2023-01-08T16:05:10;13.07;62.33
63976;DHT22;50167;47.958;21.780;2023-01-08T16:07:37;13.47;59.78
63976;DHT22;50167;47.958;21.780;2023-01-08T16:10:05;13.72;58.88
63976;DHT22;50167;47.958;21.780;2023-01-08T16:12:31;13.17;56.84
63976;DHT22;50167;47.958;21.780;2023-01-08T16:14:57;12.09;58.05
63976;DHT22;50167;47.958;21.780;2023-01-08T16:17:51;11.17;60.08
63976;DHT22;50167;47.958;21.780;2023-01-08T16:20:18;10.38;61.81
63976;DHT22;50167;47.958;21.780;2023-01-08T16:22:44;10.71;65.99
63976;DHT22;50167;47.958;21.780;2023-01-08T16:25:11;11.78;65.77
63976;DHT22;50167;47.958;21.780;2023-01-08T16:27:39;12.61;63.76
63976;DHT22;50167;47.958;21.780;2023-01-08T16:30:13;13.19;61.59
63976;DHT22;50167;47.958;21.780;2023-01-08T16:32:40;13.58;59.87
63976;DHT22;50167;47.958;21.780;2023-01-08T16:35:07;13.35;57.09
63976;DHT22;50167;47.958;21.780;2023-01-08T16:37:34;12.23;58.01
63976;DHT22;50167;47.958;21.780;2023-01-08T16:40:00;11.24;59.89
63976;DHT22;50167;47.958;21.780;2023-01-08T16:42:26;10.52;62.01
63976;DHT22;50167;47.958;21.780;2023-01-08T16:44:52;10.90;66.65
63976;DHT22;50167;47.958;21.780;2023-01-08T16:47:19;12.13;65.84
63976;DHT22;50167;47.958;21.780;2023-01-08T16:49:45;12.99;62.67
63976;DHT22;50167;47.958;21.780;2023-01-08T16:52:11;13.57;60.87
63976;DHT22;50167;47.958;21.780;2023-01-08T16:54:38;13.98;59.27
63976;DHT22;50167;47.958;21.780;2023-01-08T16:57:04;13.54;56.72
63976;DHT22;50167;47.958;21.780;2023-01-08T16:59:31;12.37;57.36
63976;DHT22;50167;47.958;21.780;2023-01-08T17:01:58;11.45;59.58
63976;DHT22;50167;47.958;21.780;2023-01-08T17:04:24;10.73;62.55
63976;DHT22;50167;47.958;21.780;2023-01-08T17:06:51;11.11;65.69
63976;DHT22;50167;47.958;21.780;2023-01-08T17:09:17;12.33;65.34
63976;DHT22;50167;47.958;21.780;2023-01-08T17:11:43;13.07;61.92
63976;DHT22;50167;47.958;21.780;2023-01-08T17:14:10;13.45;60.70
63976;DHT22;50167;47.958;21.780;2023-01-08T17:16:38;13.77;59.54
63976;DHT22;50167;47.958;21.780;2023-01-08T17:19:06;13.34;57.48
63976;DHT22;50167;47.958;21.780;2023-01-08T17:21:32;12.23;57.93
63976;DHT22;50167;47.958;21.780;2023-01-08T17:24:01;11.34;59.82